createdAt,value
2023-04-15T18:44:37.472Z,17.35
2023-04-15T18:47:04.641Z,24.67
2023-04-15T18:49:33.533Z,25.30
2023-04-15T18:52:00.705Z,35.20
2023-04-15T18:54:27.874Z,39.08
2023-04-15T18:56:55.097Z,37.88
2023-04-15T18:59:29.697Z,40.50
2023-04-15T19:01:59.015Z,40.95
2023-04-15T19:04:26.310Z,36.65
2023-04-15T19:06:53.448Z,36.97
2023-04-15T19:09:20.790Z,27.85
2023-04-15T19:11:48.109Z,20.02
2023-04-15T19:14:15.429Z,11.98
2023-04-15T19:16:42.607Z,15.88
2023-04-15T19:19:09.738Z,15.35
2023-04-15T19:21:37.010Z,18.80
2023-04-15T19:24:04.266Z,12.70
2023-04-15T19:26:31.599Z,19.88
2023-04-15T19:28:59.199Z,20.88
2023-04-15T19:31:26.606Z,19.85
2023-04-15T19:33:53.748Z,9.18
2023-04-15T19:36:21.076Z,8.93
2023-04-15T19:38:48.286Z,8.27
2023-04-15T19:41:15.973Z,9.65
2023-04-15T19:43:43.116Z,14.40
2023-04-15T19:46:10.280Z,15.18
2023-04-15T19:48:37.419Z,20.48
2023-04-15T19:51:05.271Z,13.20
2023-04-15T19:53:32.728Z,11.90
2023-04-15T19:55:59.877Z,11.40
2023-04-15T19:58:27.639Z,11.60
2023-04-15T20:00:54.774Z,19.65
2023-04-15T20:03:22.382Z,12.85
2023-04-15T20:05:49.773Z,9.13
2023-04-15T20:08:17.378Z,40.85
2023-04-15T20:10:44.467Z,55.00
2023-04-15T20:13:12.315Z,64.57
2023-04-15T20:15:39.455Z,63.45
2023-04-15T20:18:07.210Z,52.00
2023-04-15T20:20:35.072Z,20.88
2023-04-15T20:23:02.386Z,18.33
2023-04-15T20:25:29.497Z,13.23
2023-04-15T20:28:00.397Z,21.52
2023-04-15T20:30:29.430Z,15.02
2023-04-15T20:32:56.732Z,15.60
2023-04-15T20:35:25.356Z,7.85
2023-04-15T20:37:52.446Z,11.98
2023-04-15T20:40:19.591Z,18.27
2023-04-15T20:42:46.691Z,31.15
2023-04-15T20:45:13.923Z,35.20
2023-04-15T20:47:41.863Z,58.35
2023-04-15T20:50:09.871Z,56.42
2023-04-15T20:52:37.084Z,37.90
2023-04-15T20:55:04.496Z,29.50
2023-04-15T20:57:31.847Z,40.38
2023-04-15T20:59:59.037Z,60.47
2023-04-15T21:02:26.421Z,32.60
2023-04-15T21:04:53.653Z,31.67
2023-04-15T21:07:20.796Z,19.92
2023-04-15T21:09:48.064Z,32.35
2023-04-15T21:12:15.147Z,27.27
2023-04-15T21:14:42.324Z,26.80
2023-04-15T21:17:11.132Z,26.50
2023-04-15T21:19:38.939Z,8.88
2023-04-15T21:22:06.166Z,15.40
2023-04-15T21:24:33.446Z,13.70
2023-04-15T21:27:02.169Z,15.75
2023-04-15T21:29:29.634Z,25.70
2023-04-15T21:31:56.823Z,12.93
2023-04-15T21:34:24.111Z,18.77
2023-04-15T21:36:51.228Z,25.33
2023-04-15T21:39:18.532Z,15.73
2023-04-15T21:41:45.685Z,20.08
2023-04-15T21:44:14.869Z,18.40
2023-04-15T21:46:46.028Z,16.85
2023-04-15T21:49:14.139Z,20.38
2023-04-15T21:51:41.243Z,19.48
2023-04-15T21:54:08.439Z,19.63
2023-04-15T21:56:35.771Z,22.13
2023-04-15T21:59:02.934Z,28.38
2023-04-15T22:01:30.193Z,14.45
2023-04-15T22:03:57.632Z,20.83
2023-04-15T22:06:24.809Z,18.35
2023-04-15T22:09:11.335Z,17.13
2023-04-15T22:11:39.031Z,27.35
2023-04-15T22:14:06.360Z,15.90
2023-04-15T22:16:33.673Z,21.88
2023-04-15T22:19:00.869Z,30.50
2023-04-15T22:21:28.086Z,19.30
2023-04-15T22:24:33.507Z,33.17
2023-04-15T22:26:42.478Z,33.10
2023-04-15T22:29:10.036Z,33.63
2023-04-15T22:31:37.223Z,33.58
2023-04-15T22:34:04.459Z,31.52
2023-04-15T22:36:32.080Z,29.42
2023-04-15T22:38:59.131Z,26.45
2023-04-15T22:41:26.631Z,28.90
2023-04-15T22:43:53.755Z,26.83
2023-04-15T22:46:21.134Z,23.48
2023-04-15T22:48:48.274Z,26.05
2023-04-15T22:51:22.385Z,22.20
2023-04-15T22:53:50.935Z,28.65
2023-04-15T22:56:22.266Z,27.48
2023-04-15T22:58:50.699Z,20.30
2023-04-15T23:01:18.371Z,22.17
2023-04-15T23:03:56.973Z,21.85
2023-04-15T23:06:27.458Z,15.57
2023-04-15T23:08:54.817Z,13.48
2023-04-15T23:11:22.301Z,14.90
2023-04-15T23:13:50.880Z,11.70
2023-04-15T23:16:18.038Z,14.05
2023-04-15T23:18:45.151Z,15.30
2023-04-15T23:21:12.227Z,17.80
2023-04-15T23:23:39.313Z,11.68
2023-04-15T23:26:06.639Z,12.13
2023-04-15T23:28:33.708Z,15.00
2023-04-15T23:31:00.953Z,14.02
2023-04-15T23:33:28.162Z,14.35
2023-04-15T23:35:55.447Z,11.93
2023-04-15T23:38:22.691Z,11.57
2023-04-15T23:40:51.412Z,13.63
2023-04-15T23:43:18.511Z,12.13
2023-04-15T23:45:45.623Z,12.43
2023-04-15T23:48:12.759Z,12.60
2023-04-15T23:50:40.006Z,14.88
2023-04-15T23:53:07.132Z,16.40
2023-04-15T23:55:34.222Z,17.25
2023-04-15T23:58:01.298Z,12.95
